Kezdőlap
METAR-TAF:

METAR-TAF

Repülőterek :

Nukus, Üzbegisztán

földrajzi szélesség: 42-28-48N, földrajzi hosszúság: 059-37-48E, magasság: 77 m

Jelenlegi meteorológiai megfigyelések

A jelentés 39 perccel ezelõtt készült, 23:30 UTC
Délkeleti szél 8 kt
Hőmérséklet 10°C
Páratartalom 50%
Légköri nyomás 1023 hPa
Látótávolság 10 km, vagy több
felhőtlen 1500 m magasságban, és nincs gomolyfelhõ

METAR: UTNN 242330Z 14008KT CAVOK 10/00 Q1023 R33/CLRD60 NOSIG

Idő: 05:09 (00:09 UTC)

Előrejelzés

A jelentés 1 órával és 9 perccel ezelõtt készült, 23:00 UTC
Az előrejelzés 25-én 00 óra UTC és 25-én 24 óra UTC között érvényes
Dél-délkeleti szél 8 kt széllökések: 18 kt
Látótávolság 10 km, vagy több
felhőtlen 1500 m magasságban, és nincs gomolyfelhõ
25-én 08 óra UTC és 25-én 16 óra UTC között ideiglenes
Dél-délnyugati szél 12 kt széllökések: 22 kt

TAF: UTNN 242300Z 2500/2524 16008G18KT CAVOK TEMPO 2508/2516 20012G22KT

Meteorológiai megfigyelések és előrejelzések több, mint 4000 repülőtéren (METAR és TAF jelentéseket).

A térképen piros és sárga pontok jelzik az elérhető meteorológiai állomásokat.

Mozgassa az egeret a pont fölött, hogy megjelenjen az állomás neve.

Azután kattintson az időjárási megfigyelések és előrejelzések megtekintéséhez.

A térkép megváltoztatása: kattintson a fekete keresztel jelölt zöld gombra ráközelítéshez, a vonallal jelölt zöld gombra távolításhoz, vagy a zöld nyilakra a szomszédos térképek eléréséhez.


METAR-TAF: